West Hamlin, West Virginia
Current Conditions -  °F | °C
As of 7:51 PM on Sunday 23 Nov 2014 (Local Time) from KHTS Reporting Station
Heavy Rain Heavy Rain  
Wind Chill: 54°   Ceiling: 7500
Heat Index: 54°   Visibility: 5mi
Dew Point: 52°   Wind: 7mph
Humidity: 93%   Direction: 120°ESE
Pressure: 29.56"   Gusts: NA
Location:  38.29°N, 82.2°W
Report Text: KHTS 240051Z 12006KT 5SM +RA BR SCT055 BKN075 OVC100 12/11 A2956 RMK AO2 SLP011 P0007 T01220111
Loading
Personal Weather Stations






























Interactive Weather Map New forecast layout! Learn more

10-Day Weather Forecast

Advertisements
Track Severe Weather on mobile